sensor_id;sensor_type;location;lat;lon;timestamp;temperature;humidity
57108;DHT22;42987;52.916;6.542;2023-02-04T00:01:24;7.00;99.90
57108;DHT22;42987;52.916;6.542;2023-02-04T00:03:50;7.00;99.90
57108;DHT22;42987;52.916;6.542;2023-02-04T00:06:19;7.00;99.90
57108;DHT22;42987;52.916;6.542;2023-02-04T00:08:45;7.00;99.90
57108;DHT22;42987;52.916;6.542;2023-02-04T00:11:11;7.00;99.90
57108;DHT22;42987;52.916;6.542;2023-02-04T00:13:37;7.00;99.90
57108;DHT22;42987;52.916;6.542;2023-02-04T00:16:03;7.00;99.90
57108;DHT22;42987;52.916;6.542;2023-02-04T00:18:29;7.00;99.90
57108;DHT22;42987;52.916;6.542;2023-02-04T00:20:54;7.00;99.90
57108;DHT22;42987;52.916;6.542;2023-02-04T00:23:20;7.00;99.90
57108;DHT22;42987;52.916;6.542;2023-02-04T00:25:46;7.00;99.90
57108;DHT22;42987;52.916;6.542;2023-02-04T00:28:12;7.00;99.90
57108;DHT22;42987;52.916;6.542;2023-02-04T00:30:37;7.00;99.90
57108;DHT22;42987;52.916;6.542;2023-02-04T00:33:03;7.00;99.90
57108;DHT22;42987;52.916;6.542;2023-02-04T00:35:29;7.00;99.90
57108;DHT22;42987;52.916;6.542;2023-02-04T00:37:55;7.00;99.90
57108;DHT22;42987;52.916;6.542;2023-02-04T00:40:21;7.00;99.90
57108;DHT22;42987;52.916;6.542;2023-02-04T00:42:46;7.00;99.90
57108;DHT22;42987;52.916;6.542;2023-02-04T00:45:12;7.00;99.90
57108;DHT22;42987;52.916;6.542;2023-02-04T00:47:38;7.00;99.90
57108;DHT22;42987;52.916;6.542;2023-02-04T00:50:04;7.00;99.90
57108;DHT22;42987;52.916;6.542;2023-02-04T00:52:30;7.00;99.90
57108;DHT22;42987;52.916;6.542;2023-02-04T00:54:56;7.00;99.90
57108;DHT22;42987;52.916;6.542;2023-02-04T00:57:22;7.00;99.90
57108;DHT22;42987;52.916;6.542;2023-02-04T00:59:50;7.00;99.90
57108;DHT22;42987;52.916;6.542;2023-02-04T01:02:16;7.00;99.90
57108;DHT22;42987;52.916;6.542;2023-02-04T01:04:42;7.00;99.90
57108;DHT22;42987;52.916;6.542;2023-02-04T01:07:08;7.10;99.90
57108;DHT22;42987;52.916;6.542;2023-02-04T01:09:33;7.00;99.90
57108;DHT22;42987;52.916;6.542;2023-02-04T01:11:59;7.00;99.90
57108;DHT22;42987;52.916;6.542;2023-02-04T01:14:25;7.00;99.90
57108;DHT22;42987;52.916;6.542;2023-02-04T01:16:51;7.00;99.90
57108;DHT22;42987;52.916;6.542;2023-02-04T01:19:17;7.00;99.90
57108;DHT22;42987;52.916;6.542;2023-02-04T01:21:43;7.00;99.90
57108;DHT22;42987;52.916;6.542;2023-02-04T01:24:08;7.00;99.90
57108;DHT22;42987;52.916;6.542;2023-02-04T01:26:34;7.00;99.90
57108;DHT22;42987;52.916;6.542;2023-02-04T01:29:00;7.00;99.90
57108;DHT22;42987;52.916;6.542;2023-02-04T01:31:25;7.00;99.90
57108;DHT22;42987;52.916;6.542;2023-02-04T01:33:56;7.00;99.90
57108;DHT22;42987;52.916;6.542;2023-02-04T01:36:22;7.00;99.90
57108;DHT22;42987;52.916;6.542;2023-02-04T01:38:50;7.00;99.90
57108;DHT22;42987;52.916;6.542;2023-02-04T01:41:17;7.00;99.90
57108;DHT22;42987;52.916;6.542;2023-02-04T01:43:43;6.90;99.90
57108;DHT22;42987;52.916;6.542;2023-02-04T01:46:09;7.00;99.90
57108;DHT22;42987;52.916;6.542;2023-02-04T01:48:41;7.00;99.90
57108;DHT22;42987;52.916;6.542;2023-02-04T01:51:10;6.90;99.90
57108;DHT22;42987;52.916;6.542;2023-02-04T01:53:38;7.00;99.90
57108;DHT22;42987;52.916;6.542;2023-02-04T01:56:21;7.00;99.90
57108;DHT22;42987;52.916;6.542;2023-02-04T01:58:48;7.00;99.90
57108;DHT22;42987;52.916;6.542;2023-02-04T02:01:37;7.00;99.90
57108;DHT22;42987;52.916;6.542;2023-02-04T02:04:08;7.00;99.90
57108;DHT22;42987;52.916;6.542;2023-02-04T02:06:35;7.00;99.90
57108;DHT22;42987;52.916;6.542;2023-02-04T02:09:02;7.00;99.90
57108;DHT22;42987;52.916;6.542;2023-02-04T02:11:28;7.00;99.90
57108;DHT22;42987;52.916;6.542;2023-02-04T02:13:56;7.00;99.90
57108;DHT22;42987;52.916;6.542;2023-02-04T02:16:22;7.10;99.90
57108;DHT22;42987;52.916;6.542;2023-02-04T02:18:48;7.10;99.90
57108;DHT22;42987;52.916;6.542;2023-02-04T02:21:18;7.10;99.90
57108;DHT22;42987;52.916;6.542;2023-02-04T02:23:50;7.10;99.90
57108;DHT22;42987;52.916;6.542;2023-02-04T02:26:19;7.00;99.90
57108;DHT22;42987;52.916;6.542;2023-02-04T02:28:49;7.00;99.90
57108;DHT22;42987;52.916;6.542;2023-02-04T02:31:18;7.00;99.90
57108;DHT22;42987;52.916;6.542;2023-02-04T02:33:45;7.00;99.90
57108;DHT22;42987;52.916;6.542;2023-02-04T02:36:11;7.00;99.90
57108;DHT22;42987;52.916;6.542;2023-02-04T02:38:37;7.00;99.90
57108;DHT22;42987;52.916;6.542;2023-02-04T02:41:04;7.00;99.90
57108;DHT22;42987;52.916;6.542;2023-02-04T02:43:34;7.00;99.90
57108;DHT22;42987;52.916;6.542;2023-02-04T02:46:04;7.00;99.90
57108;DHT22;42987;52.916;6.542;2023-02-04T02:48:30;6.90;99.90
57108;DHT22;42987;52.916;6.542;2023-02-04T02:50:55;6.90;99.90
57108;DHT22;42987;52.916;6.542;2023-02-04T02:53:24;6.90;99.90
57108;DHT22;42987;52.916;6.542;2023-02-04T02:55:50;6.90;99.90
57108;DHT22;42987;52.916;6.542;2023-02-04T02:58:27;6.90;99.90
57108;DHT22;42987;52.916;6.542;2023-02-04T03:00:53;6.90;99.90
57108;DHT22;42987;52.916;6.542;2023-02-04T03:03:29;6.90;99.90
57108;DHT22;42987;52.916;6.542;2023-02-04T03:06:16;6.90;99.90
57108;DHT22;42987;52.916;6.542;2023-02-04T03:08:46;6.90;99.90
57108;DHT22;42987;52.916;6.542;2023-02-04T03:11:12;6.90;99.90
57108;DHT22;42987;52.916;6.542;2023-02-04T03:13:38;6.90;99.90
57108;DHT22;42987;52.916;6.542;2023-02-04T03:16:05;6.90;99.90
57108;DHT22;42987;52.916;6.542;2023-02-04T03:18:33;6.90;99.90
57108;DHT22;42987;52.916;6.542;2023-02-04T03:21:00;6.80;99.90
57108;DHT22;42987;52.916;6.542;2023-02-04T03:23:27;6.90;99.90
57108;DHT22;42987;52.916;6.542;2023-02-04T03:25:55;6.90;99.90
57108;DHT22;42987;52.916;6.542;2023-02-04T03:28:21;6.90;99.90
57108;DHT22;42987;52.916;6.542;2023-02-04T03:30:47;6.90;99.90
57108;DHT22;42987;52.916;6.542;2023-02-04T03:33:18;6.90;99.90
57108;DHT22;42987;52.916;6.542;2023-02-04T03:35:44;6.90;99.90
57108;DHT22;42987;52.916;6.542;2023-02-04T03:38:09;6.90;99.90
57108;DHT22;42987;52.916;6.542;2023-02-04T03:40:35;6.90;99.90
57108;DHT22;42987;52.916;6.542;2023-02-04T03:43:01;6.90;99.90
57108;DHT22;42987;52.916;6.542;2023-02-04T03:45:27;6.90;99.90
57108;DHT22;42987;52.916;6.542;2023-02-04T03:47:55;6.80;99.90
57108;DHT22;42987;52.916;6.542;2023-02-04T03:50:21;6.80;99.90
57108;DHT22;42987;52.916;6.542;2023-02-04T03:52:47;6.80;99.90
57108;DHT22;42987;52.916;6.542;2023-02-04T03:55:14;6.80;99.90
57108;DHT22;42987;52.916;6.542;2023-02-04T03:57:40;6.80;99.90
57108;DHT22;42987;52.916;6.542;2023-02-04T04:00:06;6.80;99.90
57108;DHT22;42987;52.916;6.542;2023-02-04T04:02:32;6.80;99.90
57108;DHT22;42987;52.916;6.542;2023-02-04T04:04:58;6.80;99.90
57108;DHT22;42987;52.916;6.542;2023-02-04T04:07:24;6.80;99.90
57108;DHT22;42987;52.916;6.542;2023-02-04T04:09:50;6.80;99.90
57108;DHT22;42987;52.916;6.542;2023-02-04T04:12:15;6.90;99.90
57108;DHT22;42987;52.916;6.542;2023-02-04T04:14:41;6.80;99.90
57108;DHT22;42987;52.916;6.542;2023-02-04T04:17:07;6.80;99.90
57108;DHT22;42987;52.916;6.542;2023-02-04T04:19:33;6.90;99.90
57108;DHT22;42987;52.916;6.542;2023-02-04T04:21:58;6.90;99.90
57108;DHT22;42987;52.916;6.542;2023-02-04T04:24:24;6.90;99.90
57108;DHT22;42987;52.916;6.542;2023-02-04T04:26:50;6.80;99.90
57108;DHT22;42987;52.916;6.542;2023-02-04T04:29:15;6.80;99.90
57108;DHT22;42987;52.916;6.542;2023-02-04T04:31:41;6.80;99.90
57108;DHT22;42987;52.916;6.542;2023-02-04T04:34:07;6.80;99.90
57108;DHT22;42987;52.916;6.542;2023-02-04T04:36:33;6.80;99.90
57108;DHT22;42987;52.916;6.542;2023-02-04T04:38:59;6.80;99.90
57108;DHT22;42987;52.916;6.542;2023-02-04T04:41:28;6.80;99.90
57108;DHT22;42987;52.916;6.542;2023-02-04T04:43:53;6.80;99.90
57108;DHT22;42987;52.916;6.542;2023-02-04T04:46:19;6.80;99.90
57108;DHT22;42987;52.916;6.542;2023-02-04T04:48:45;6.80;99.90
57108;DHT22;42987;52.916;6.542;2023-02-04T04:51:11;6.70;99.90
57108;DHT22;42987;52.916;6.542;2023-02-04T04:53:36;6.80;99.90
57108;DHT22;42987;52.916;6.542;2023-02-04T04:56:03;6.70;99.90
57108;DHT22;42987;52.916;6.542;2023-02-04T04:58:32;6.80;99.90
57108;DHT22;42987;52.916;6.542;2023-02-04T05:00:57;6.80;99.90
57108;DHT22;42987;52.916;6.542;2023-02-04T05:03:23;6.70;99.90
57108;DHT22;42987;52.916;6.542;2023-02-04T05:05:49;6.70;99.90
57108;DHT22;42987;52.916;6.542;2023-02-04T05:08:15;6.70;99.90
57108;DHT22;42987;52.916;6.542;2023-02-04T05:10:42;6.70;99.90
57108;DHT22;42987;52.916;6.542;2023-02-04T05:13:08;6.70;99.90
57108;DHT22;42987;52.916;6.542;2023-02-04T05:15:34;6.70;99.90
57108;DHT22;42987;52.916;6.542;2023-02-04T05:18:00;6.70;99.90
57108;DHT22;42987;52.916;6.542;2023-02-04T05:20:26;6.70;99.90
57108;DHT22;42987;52.916;6.542;2023-02-04T05:22:55;6.60;99.90
57108;DHT22;42987;52.916;6.542;2023-02-04T05:25:22;6.60;99.90
57108;DHT22;42987;52.916;6.542;2023-02-04T05:27:50;6.60;99.90
57108;DHT22;42987;52.916;6.542;2023-02-04T05:30:16;6.60;99.90
57108;DHT22;42987;52.916;6.542;2023-02-04T05:32:42;6.60;99.90
57108;DHT22;42987;52.916;6.542;2023-02-04T05:35:08;6.60;99.90
57108;DHT22;42987;52.916;6.542;2023-02-04T05:37:34;6.60;99.90
57108;DHT22;42987;52.916;6.542;2023-02-04T05:39:59;6.60;99.90
57108;DHT22;42987;52.916;6.542;2023-02-04T05:42:25;6.60;99.90
57108;DHT22;42987;52.916;6.542;2023-02-04T05:44:51;6.60;99.90
57108;DHT22;42987;52.916;6.542;2023-02-04T05:47:17;6.50;99.90
57108;DHT22;42987;52.916;6.542;2023-02-04T05:49:45;6.50;99.90
57108;DHT22;42987;52.916;6.542;2023-02-04T05:52:11;6.50;99.90
57108;DHT22;42987;52.916;6.542;2023-02-04T05:54:37;6.50;99.90
57108;DHT22;42987;52.916;6.542;2023-02-04T05:57:03;6.50;99.90
57108;DHT22;42987;52.916;6.542;2023-02-04T05:59:29;6.50;99.90
57108;DHT22;42987;52.916;6.542;2023-02-04T06:01:55;6.50;99.90
57108;DHT22;42987;52.916;6.542;2023-02-04T06:04:20;6.50;99.90
57108;DHT22;42987;52.916;6.542;2023-02-04T06:06:46;6.40;99.90
57108;DHT22;42987;52.916;6.542;2023-02-04T06:09:12;6.40;99.90
57108;DHT22;42987;52.916;6.542;2023-02-04T06:11:38;6.40;99.90
57108;DHT22;42987;52.916;6.542;2023-02-04T06:14:04;6.40;99.90
57108;DHT22;42987;52.916;6.542;2023-02-04T06:16:30;6.40;99.90
57108;DHT22;42987;52.916;6.542;2023-02-04T06:18:55;6.40;99.90
57108;DHT22;42987;52.916;6.542;2023-02-04T06:21:21;6.30;99.90
57108;DHT22;42987;52.916;6.542;2023-02-04T06:23:47;6.30;99.90
57108;DHT22;42987;52.916;6.542;2023-02-04T06:26:13;6.30;99.90
57108;DHT22;42987;52.916;6.542;2023-02-04T06:28:41;6.30;99.90
57108;DHT22;42987;52.916;6.542;2023-02-04T06:31:07;6.30;99.90
57108;DHT22;42987;52.916;6.542;2023-02-04T06:33:34;6.20;99.90
57108;DHT22;42987;52.916;6.542;2023-02-04T06:36:10;6.20;99.90
57108;DHT22;42987;52.916;6.542;2023-02-04T06:38:36;6.20;99.90
57108;DHT22;42987;52.916;6.542;2023-02-04T06:41:02;6.20;99.90
57108;DHT22;42987;52.916;6.542;2023-02-04T06:43:28;6.20;99.90
57108;DHT22;42987;52.916;6.542;2023-02-04T06:45:54;6.20;99.90
57108;DHT22;42987;52.916;6.542;2023-02-04T06:48:19;6.20;99.90
57108;DHT22;42987;52.916;6.542;2023-02-04T06:50:45;6.10;99.90
57108;DHT22;42987;52.916;6.542;2023-02-04T06:53:11;6.10;99.90
57108;DHT22;42987;52.916;6.542;2023-02-04T06:55:37;6.10;99.90
57108;DHT22;42987;52.916;6.542;2023-02-04T06:58:03;6.10;99.90
57108;DHT22;42987;52.916;6.542;2023-02-04T07:00:28;6.00;99.90
57108;DHT22;42987;52.916;6.542;2023-02-04T07:02:56;6.00;99.90
57108;DHT22;42987;52.916;6.542;2023-02-04T07:05:23;6.00;99.90
57108;DHT22;42987;52.916;6.542;2023-02-04T07:07:49;6.00;99.90
57108;DHT22;42987;52.916;6.542;2023-02-04T07:10:16;6.00;99.90
57108;DHT22;42987;52.916;6.542;2023-02-04T07:12:42;5.90;99.90
57108;DHT22;42987;52.916;6.542;2023-02-04T07:15:09;5.90;99.90
57108;DHT22;42987;52.916;6.542;2023-02-04T07:17:34;5.90;99.90
57108;DHT22;42987;52.916;6.542;2023-02-04T07:20:00;5.90;99.90
57108;DHT22;42987;52.916;6.542;2023-02-04T07:22:26;5.90;99.90
57108;DHT22;42987;52.916;6.542;2023-02-04T07:24:52;5.80;99.90
57108;DHT22;42987;52.916;6.542;2023-02-04T07:27:18;5.90;99.90
57108;DHT22;42987;52.916;6.542;2023-02-04T07:29:44;5.80;99.90
57108;DHT22;42987;52.916;6.542;2023-02-04T07:32:09;5.80;99.90
57108;DHT22;42987;52.916;6.542;2023-02-04T07:34:38;5.80;99.90
57108;DHT22;42987;52.916;6.542;2023-02-04T07:37:04;5.80;99.90
57108;DHT22;42987;52.916;6.542;2023-02-04T07:39:30;5.80;99.90
57108;DHT22;42987;52.916;6.542;2023-02-04T07:41:55;5.80;99.90
57108;DHT22;42987;52.916;6.542;2023-02-04T07:44:21;5.80;99.90
57108;DHT22;42987;52.916;6.542;2023-02-04T07:46:49;5.80;99.90
57108;DHT22;42987;52.916;6.542;2023-02-04T07:49:15;5.80;99.90
57108;DHT22;42987;52.916;6.542;2023-02-04T07:51:41;5.80;99.90
57108;DHT22;42987;52.916;6.542;2023-02-04T07:54:07;5.80;99.90
57108;DHT22;42987;52.916;6.542;2023-02-04T07:56:33;5.80;99.90
57108;DHT22;42987;52.916;6.542;2023-02-04T07:58:59;5.90;99.90
57108;DHT22;42987;52.916;6.542;2023-02-04T08:01:25;5.80;99.90
57108;DHT22;42987;52.916;6.542;2023-02-04T08:03:51;5.90;99.90
57108;DHT22;42987;52.916;6.542;2023-02-04T08:06:17;5.90;99.90
57108;DHT22;42987;52.916;6.542;2023-02-04T08:08:43;5.90;99.90
57108;DHT22;42987;52.916;6.542;2023-02-04T08:11:09;5.90;99.90
57108;DHT22;42987;52.916;6.542;2023-02-04T08:13:34;5.90;99.90
57108;DHT22;42987;52.916;6.542;2023-02-04T08:16:00;5.90;99.90
57108;DHT22;42987;52.916;6.542;2023-02-04T08:18:26;5.90;99.90
57108;DHT22;42987;52.916;6.542;2023-02-04T08:20:52;5.90;99.90
57108;DHT22;42987;52.916;6.542;2023-02-04T08:23:18;5.90;99.90
57108;DHT22;42987;52.916;6.542;2023-02-04T08:25:44;6.00;99.90
57108;DHT22;42987;52.916;6.542;2023-02-04T08:28:10;6.00;99.90
57108;DHT22;42987;52.916;6.542;2023-02-04T08:30:36;6.00;99.90
57108;DHT22;42987;52.916;6.542;2023-02-04T08:33:02;6.00;99.90
57108;DHT22;42987;52.916;6.542;2023-02-04T08:35:28;6.00;99.90
57108;DHT22;42987;52.916;6.542;2023-02-04T08:37:53;6.00;99.90
57108;DHT22;42987;52.916;6.542;2023-02-04T08:40:19;6.00;99.90
57108;DHT22;42987;52.916;6.542;2023-02-04T08:42:45;6.10;99.90
57108;DHT22;42987;52.916;6.542;2023-02-04T08:45:11;6.10;99.90
57108;DHT22;42987;52.916;6.542;2023-02-04T08:47:37;6.00;99.90
57108;DHT22;42987;52.916;6.542;2023-02-04T08:50:03;6.10;99.90
57108;DHT22;42987;52.916;6.542;2023-02-04T08:52:29;6.10;99.90
57108;DHT22;42987;52.916;6.542;2023-02-04T08:54:54;6.10;99.90
57108;DHT22;42987;52.916;6.542;2023-02-04T08:57:20;6.10;99.90
57108;DHT22;42987;52.916;6.542;2023-02-04T08:59:46;6.20;99.90
57108;DHT22;42987;52.916;6.542;2023-02-04T09:02:12;6.10;99.90
57108;DHT22;42987;52.916;6.542;2023-02-04T09:04:38;6.20;99.90
57108;DHT22;42987;52.916;6.542;2023-02-04T09:07:03;6.10;99.90
57108;DHT22;42987;52.916;6.542;2023-02-04T09:09:29;6.20;99.90
57108;DHT22;42987;52.916;6.542;2023-02-04T09:11:55;6.20;99.90
57108;DHT22;42987;52.916;6.542;2023-02-04T09:14:20;6.30;99.90
57108;DHT22;42987;52.916;6.542;2023-02-04T09:16:46;6.30;99.90
57108;DHT22;42987;52.916;6.542;2023-02-04T09:19:13;6.30;99.90
57108;DHT22;42987;52.916;6.542;2023-02-04T09:21:41;6.30;99.90
57108;DHT22;42987;52.916;6.542;2023-02-04T09:24:07;6.30;99.90
57108;DHT22;42987;52.916;6.542;2023-02-04T09:26:36;6.30;99.90
57108;DHT22;42987;52.916;6.542;2023-02-04T09:29:01;6.30;99.90
57108;DHT22;42987;52.916;6.542;2023-02-04T09:31:27;6.30;99.90
57108;DHT22;42987;52.916;6.542;2023-02-04T09:33:53;6.20;99.90
57108;DHT22;42987;52.916;6.542;2023-02-04T09:36:18;6.20;99.90
57108;DHT22;42987;52.916;6.542;2023-02-04T09:38:45;6.20;99.90
57108;DHT22;42987;52.916;6.542;2023-02-04T09:41:11;6.30;99.90
57108;DHT22;42987;52.916;6.542;2023-02-04T09:43:41;6.30;99.90
57108;DHT22;42987;52.916;6.542;2023-02-04T09:46:22;6.30;99.90
57108;DHT22;42987;52.916;6.542;2023-02-04T09:48:49;6.30;99.90
57108;DHT22;42987;52.916;6.542;2023-02-04T09:51:20;6.30;99.90
57108;DHT22;42987;52.916;6.542;2023-02-04T09:53:47;6.40;99.90
57108;DHT22;42987;52.916;6.542;2023-02-04T11:41:41;7.50;99.90
57108;DHT22;42987;52.916;6.542;2023-02-04T11:44:29;7.40;99.90
57108;DHT22;42987;52.916;6.542;2023-02-04T11:46:59;7.50;99.90
57108;DHT22;42987;52.916;6.542;2023-02-04T11:49:27;7.50;99.90
57108;DHT22;42987;52.916;6.542;2023-02-04T11:52:10;7.50;99.90
57108;DHT22;42987;52.916;6.542;2023-02-04T11:54:37;7.50;99.90
57108;DHT22;42987;52.916;6.542;2023-02-04T11:57:03;7.50;99.90
57108;DHT22;42987;52.916;6.542;2023-02-04T11:59:30;7.50;99.90
57108;DHT22;42987;52.916;6.542;2023-02-04T12:04:50;7.50;99.90
57108;DHT22;42987;52.916;6.542;2023-02-04T12:07:20;7.60;99.90
57108;DHT22;42987;52.916;6.542;2023-02-04T12:09:48;7.60;99.90
57108;DHT22;42987;52.916;6.542;2023-02-04T12:12:26;7.60;99.90
57108;DHT22;42987;52.916;6.542;2023-02-04T12:15:00;7.60;99.90
57108;DHT22;42987;52.916;6.542;2023-02-04T12:17:26;7.70;99.90
57108;DHT22;42987;52.916;6.542;2023-02-04T12:19:52;7.70;99.90
57108;DHT22;42987;52.916;6.542;2023-02-04T12:22:18;7.70;99.90
57108;DHT22;42987;52.916;6.542;2023-02-04T12:24:44;7.70;99.90
57108;DHT22;42987;52.916;6.542;2023-02-04T12:27:13;7.80;99.90
57108;DHT22;42987;52.916;6.542;2023-02-04T12:29:39;7.80;99.90
57108;DHT22;42987;52.916;6.542;2023-02-04T12:32:04;7.80;99.90
57108;DHT22;42987;52.916;6.542;2023-02-04T12:34:30;7.80;99.90
57108;DHT22;42987;52.916;6.542;2023-02-04T12:36:56;7.80;99.90
57108;DHT22;42987;52.916;6.542;2023-02-04T12:39:22;7.80;99.90
57108;DHT22;42987;52.916;6.542;2023-02-04T12:41:51;7.70;99.90
57108;DHT22;42987;52.916;6.542;2023-02-04T12:44:17;7.80;99.90
57108;DHT22;42987;52.916;6.542;2023-02-04T12:46:42;7.80;99.90
57108;DHT22;42987;52.916;6.542;2023-02-04T12:49:11;7.80;99.90
57108;DHT22;42987;52.916;6.542;2023-02-04T12:51:37;7.80;99.90
57108;DHT22;42987;52.916;6.542;2023-02-04T12:54:03;7.90;99.90
57108;DHT22;42987;52.916;6.542;2023-02-04T12:56:29;7.90;99.90
57108;DHT22;42987;52.916;6.542;2023-02-04T12:58:55;7.90;99.90
57108;DHT22;42987;52.916;6.542;2023-02-04T13:01:21;7.90;99.90
57108;DHT22;42987;52.916;6.542;2023-02-04T13:03:47;7.90;99.90
57108;DHT22;42987;52.916;6.542;2023-02-04T13:06:13;8.00;99.90
57108;DHT22;42987;52.916;6.542;2023-02-04T13:08:50;8.00;99.90
57108;DHT22;42987;52.916;6.542;2023-02-04T14:32:05;8.00;99.90
57108;DHT22;42987;52.916;6.542;2023-02-04T14:34:31;8.00;99.90
57108;DHT22;42987;52.916;6.542;2023-02-04T14:37:12;7.90;99.90
57108;DHT22;42987;52.916;6.542;2023-02-04T14:39:38;7.90;99.90
57108;DHT22;42987;52.916;6.542;2023-02-04T14:42:04;7.90;99.90
57108;DHT22;42987;52.916;6.542;2023-02-04T14:44:32;7.90;99.90
57108;DHT22;42987;52.916;6.542;2023-02-04T14:46:58;7.90;99.90
57108;DHT22;42987;52.916;6.542;2023-02-04T14:49:24;7.90;99.90
57108;DHT22;42987;52.916;6.542;2023-02-04T14:51:56;7.90;99.90
57108;DHT22;42987;52.916;6.542;2023-02-04T14:54:22;7.90;99.90
57108;DHT22;42987;52.916;6.542;2023-02-04T14:56:48;7.90;99.90
57108;DHT22;42987;52.916;6.542;2023-02-04T14:59:15;7.90;99.90
57108;DHT22;42987;52.916;6.542;2023-02-04T15:01:41;7.80;99.90
57108;DHT22;42987;52.916;6.542;2023-02-04T15:04:10;7.80;99.90
57108;DHT22;42987;52.916;6.542;2023-02-04T15:06:44;7.80;99.90
57108;DHT22;42987;52.916;6.542;2023-02-04T15:09:11;7.80;99.90
57108;DHT22;42987;52.916;6.542;2023-02-04T15:11:40;7.80;99.90
57108;DHT22;42987;52.916;6.542;2023-02-04T15:14:06;7.80;99.90
57108;DHT22;42987;52.916;6.542;2023-02-04T15:16:32;7.80;99.90
57108;DHT22;42987;52.916;6.542;2023-02-04T15:18:58;7.70;99.90
57108;DHT22;42987;52.916;6.542;2023-02-04T15:21:27;7.70;99.90
57108;DHT22;42987;52.916;6.542;2023-02-04T15:23:56;7.70;99.90
57108;DHT22;42987;52.916;6.542;2023-02-04T15:26:24;7.70;99.90
57108;DHT22;42987;52.916;6.542;2023-02-04T15:28:51;7.70;99.90
57108;DHT22;42987;52.916;6.542;2023-02-04T15:31:19;7.60;99.90
57108;DHT22;42987;52.916;6.542;2023-02-04T15:33:46;7.50;99.90
57108;DHT22;42987;52.916;6.542;2023-02-04T15:36:12;7.50;99.90
57108;DHT22;42987;52.916;6.542;2023-02-04T15:38:40;7.50;99.90
57108;DHT22;42987;52.916;6.542;2023-02-04T15:41:28;7.40;99.90
57108;DHT22;42987;52.916;6.542;2023-02-04T15:43:54;7.40;99.90
57108;DHT22;42987;52.916;6.542;2023-02-04T15:46:23;7.40;99.90
57108;DHT22;42987;52.916;6.542;2023-02-04T15:48:49;7.20;99.90
57108;DHT22;42987;52.916;6.542;2023-02-04T15:51:15;7.20;99.90
57108;DHT22;42987;52.916;6.542;2023-02-04T15:53:41;7.10;99.90
57108;DHT22;42987;52.916;6.542;2023-02-04T15:56:07;7.10;99.90
57108;DHT22;42987;52.916;6.542;2023-02-04T15:58:33;7.00;99.90
57108;DHT22;42987;52.916;6.542;2023-02-04T16:00:59;6.90;99.90
57108;DHT22;42987;52.916;6.542;2023-02-04T16:03:26;6.90;99.90
57108;DHT22;42987;52.916;6.542;2023-02-04T16:05:52;6.80;99.90
57108;DHT22;42987;52.916;6.542;2023-02-04T16:08:20;6.70;99.90
57108;DHT22;42987;52.916;6.542;2023-02-04T16:10:45;6.70;99.90
57108;DHT22;42987;52.916;6.542;2023-02-04T16:13:11;6.60;99.90
57108;DHT22;42987;52.916;6.542;2023-02-04T16:15:38;6.60;99.90
57108;DHT22;42987;52.916;6.542;2023-02-04T16:18:10;6.60;99.90
57108;DHT22;42987;52.916;6.542;2023-02-04T16:20:36;6.50;99.90
57108;DHT22;42987;52.916;6.542;2023-02-04T16:23:14;6.50;99.90
57108;DHT22;42987;52.916;6.542;2023-02-04T16:25:40;6.50;99.90
57108;DHT22;42987;52.916;6.542;2023-02-04T16:28:06;6.40;99.90
57108;DHT22;42987;52.916;6.542;2023-02-04T16:30:32;6.30;99.90
57108;DHT22;42987;52.916;6.542;2023-02-04T16:32:58;6.30;99.90
57108;DHT22;42987;52.916;6.542;2023-02-04T16:35:24;6.20;99.90
57108;DHT22;42987;52.916;6.542;2023-02-04T16:37:56;6.20;99.90
57108;DHT22;42987;52.916;6.542;2023-02-04T16:40:34;6.20;99.90
57108;DHT22;42987;52.916;6.542;2023-02-04T16:43:00;6.10;99.90
57108;DHT22;42987;52.916;6.542;2023-02-04T16:45:26;6.10;99.90
57108;DHT22;42987;52.916;6.542;2023-02-04T16:48:02;6.10;99.90
57108;DHT22;42987;52.916;6.542;2023-02-04T16:50:29;6.00;99.90
57108;DHT22;42987;52.916;6.542;2023-02-04T16:52:58;5.90;99.90
57108;DHT22;42987;52.916;6.542;2023-02-04T16:55:24;5.90;99.90
57108;DHT22;42987;52.916;6.542;2023-02-04T16:58:01;5.90;99.90
57108;DHT22;42987;52.916;6.542;2023-02-04T17:00:27;5.80;99.90
57108;DHT22;42987;52.916;6.542;2023-02-04T17:02:53;5.80;99.90
57108;DHT22;42987;52.916;6.542;2023-02-04T17:05:19;5.70;99.90
57108;DHT22;42987;52.916;6.542;2023-02-04T17:07:45;5.70;99.90
57108;DHT22;42987;52.916;6.542;2023-02-04T17:10:11;5.70;99.90
57108;DHT22;42987;52.916;6.542;2023-02-04T17:12:37;5.70;99.90
57108;DHT22;42987;52.916;6.542;2023-02-04T17:15:03;5.70;99.90
57108;DHT22;42987;52.916;6.542;2023-02-04T17:17:29;5.70;99.90
57108;DHT22;42987;52.916;6.542;2023-02-04T17:19:58;5.70;99.90
57108;DHT22;42987;52.916;6.542;2023-02-04T17:22:25;5.70;99.90
57108;DHT22;42987;52.916;6.542;2023-02-04T17:24:51;5.70;99.90
57108;DHT22;42987;52.916;6.542;2023-02-04T17:27:17;5.70;99.90
57108;DHT22;42987;52.916;6.542;2023-02-04T17:29:43;5.70;99.90
57108;DHT22;42987;52.916;6.542;2023-02-04T17:32:13;5.80;99.90
57108;DHT22;42987;52.916;6.542;2023-02-04T17:34:42;5.80;99.90
57108;DHT22;42987;52.916;6.542;2023-02-04T17:37:09;5.80;99.90
57108;DHT22;42987;52.916;6.542;2023-02-04T17:39:36;5.80;99.90
57108;DHT22;42987;52.916;6.542;2023-02-04T17:42:01;5.80;99.90
57108;DHT22;42987;52.916;6.542;2023-02-04T17:44:31;5.80;99.90
57108;DHT22;42987;52.916;6.542;2023-02-04T17:47:00;5.80;99.90
57108;DHT22;42987;52.916;6.542;2023-02-04T17:49:26;5.80;99.90
57108;DHT22;42987;52.916;6.542;2023-02-04T17:51:52;5.80;99.90
57108;DHT22;42987;52.916;6.542;2023-02-04T17:54:18;5.70;99.90
57108;DHT22;42987;52.916;6.542;2023-02-04T17:56:47;5.70;99.90
57108;DHT22;42987;52.916;6.542;2023-02-04T17:59:13;5.70;99.90
57108;DHT22;42987;52.916;6.542;2023-02-04T18:01:40;5.70;99.90
57108;DHT22;42987;52.916;6.542;2023-02-04T18:04:12;5.50;99.90
57108;DHT22;42987;52.916;6.542;2023-02-04T18:06:39;5.50;99.90
57108;DHT22;42987;52.916;6.542;2023-02-04T18:09:17;5.60;99.90
57108;DHT22;42987;52.916;6.542;2023-02-04T18:11:43;5.50;99.90
57108;DHT22;42987;52.916;6.542;2023-02-04T18:14:29;5.50;99.90
57108;DHT22;42987;52.916;6.542;2023-02-04T18:16:58;5.50;99.90
57108;DHT22;42987;52.916;6.542;2023-02-04T18:19:41;5.40;99.90
57108;DHT22;42987;52.916;6.542;2023-02-04T18:22:16;5.40;99.90
57108;DHT22;42987;52.916;6.542;2023-02-04T18:24:44;5.30;99.90
57108;DHT22;42987;52.916;6.542;2023-02-04T18:27:22;5.30;99.90
57108;DHT22;42987;52.916;6.542;2023-02-04T18:29:53;5.30;99.90
57108;DHT22;42987;52.916;6.542;2023-02-04T18:32:36;5.30;99.90
57108;DHT22;42987;52.916;6.542;2023-02-04T18:37:51;5.20;99.90
57108;DHT22;42987;52.916;6.542;2023-02-04T18:40:27;5.20;99.90
57108;DHT22;42987;52.916;6.542;2023-02-04T18:45:41;5.20;99.90
57108;DHT22;42987;52.916;6.542;2023-02-04T18:50:46;5.20;99.90
57108;DHT22;42987;52.916;6.542;2023-02-04T18:55:49;5.20;99.90
57108;DHT22;42987;52.916;6.542;2023-02-04T18:58:40;5.20;99.90
57108;DHT22;42987;52.916;6.542;2023-02-04T19:03:52;5.20;99.90
57108;DHT22;42987;52.916;6.542;2023-02-04T19:06:37;5.20;99.90
57108;DHT22;42987;52.916;6.542;2023-02-04T19:14:41;5.20;99.90